sensor_id;sensor_type;location;lat;lon;timestamp;P1;durP1;ratioP1;P2;durP2;ratioP2
39948;SDS011;29070;48.102;-1.652;2024-01-15T00:01:47;45.60;;;17.03;;
39948;SDS011;29070;48.102;-1.652;2024-01-15T00:06:49;48.42;;;17.67;;
39948;SDS011;29070;48.102;-1.652;2024-01-15T00:11:49;50.47;;;17.70;;
39948;SDS011;29070;48.102;-1.652;2024-01-15T00:16:49;44.47;;;15.57;;
39948;SDS011;29070;48.102;-1.652;2024-01-15T00:21:51;52.83;;;18.23;;
39948;SDS011;29070;48.102;-1.652;2024-01-15T00:26:51;47.43;;;15.70;;
39948;SDS011;29070;48.102;-1.652;2024-01-15T00:31:53;34.70;;;16.25;;
39948;SDS011;29070;48.102;-1.652;2024-01-15T00:36:53;45.60;;;16.52;;
39948;SDS011;29070;48.102;-1.652;2024-01-15T00:41:54;37.97;;;15.68;;
39948;SDS011;29070;48.102;-1.652;2024-01-15T00:46:54;47.97;;;16.63;;
39948;SDS011;29070;48.102;-1.652;2024-01-15T00:51:54;41.70;;;15.00;;
39948;SDS011;29070;48.102;-1.652;2024-01-15T00:56:55;40.77;;;15.43;;
39948;SDS011;29070;48.102;-1.652;2024-01-15T01:01:55;36.17;;;13.83;;
39948;SDS011;29070;48.102;-1.652;2024-01-15T01:06:55;34.23;;;12.97;;
39948;SDS011;29070;48.102;-1.652;2024-01-15T01:11:56;33.33;;;12.45;;
39948;SDS011;29070;48.102;-1.652;2024-01-15T01:16:56;38.15;;;13.98;;
39948;SDS011;29070;48.102;-1.652;2024-01-15T01:21:56;38.45;;;14.15;;
39948;SDS011;29070;48.102;-1.652;2024-01-15T01:26:57;32.17;;;12.90;;
39948;SDS011;29070;48.102;-1.652;2024-01-15T01:31:57;32.90;;;12.10;;
39948;SDS011;29070;48.102;-1.652;2024-01-15T01:36:57;35.40;;;11.95;;
39948;SDS011;29070;48.102;-1.652;2024-01-15T01:41:58;33.73;;;12.67;;
39948;SDS011;29070;48.102;-1.652;2024-01-15T01:46:58;32.57;;;12.20;;
39948;SDS011;29070;48.102;-1.652;2024-01-15T01:52:00;33.15;;;12.55;;
39948;SDS011;29070;48.102;-1.652;2024-01-15T01:57:03;28.25;;;10.75;;
39948;SDS011;29070;48.102;-1.652;2024-01-15T02:02:04;37.58;;;12.85;;
39948;SDS011;29070;48.102;-1.652;2024-01-15T02:07:05;32.63;;;10.82;;
39948;SDS011;29070;48.102;-1.652;2024-01-15T02:12:07;31.08;;;11.52;;
39948;SDS011;29070;48.102;-1.652;2024-01-15T02:17:07;30.38;;;11.30;;
39948;SDS011;29070;48.102;-1.652;2024-01-15T02:22:07;36.93;;;11.63;;
39948;SDS011;29070;48.102;-1.652;2024-01-15T02:27:08;30.75;;;12.07;;
39948;SDS011;29070;48.102;-1.652;2024-01-15T02:32:08;27.45;;;10.15;;
39948;SDS011;29070;48.102;-1.652;2024-01-15T02:37:09;31.33;;;11.27;;
39948;SDS011;29070;48.102;-1.652;2024-01-15T02:42:09;33.83;;;11.25;;
39948;SDS011;29070;48.102;-1.652;2024-01-15T02:47:10;25.53;;;9.47;;
39948;SDS011;29070;48.102;-1.652;2024-01-15T02:52:10;31.03;;;11.03;;
39948;SDS011;29070;48.102;-1.652;2024-01-15T02:57:10;22.63;;;8.93;;
39948;SDS011;29070;48.102;-1.652;2024-01-15T03:02:11;27.30;;;10.07;;
39948;SDS011;29070;48.102;-1.652;2024-01-15T03:07:11;25.67;;;9.83;;
39948;SDS011;29070;48.102;-1.652;2024-01-15T03:12:12;28.63;;;9.48;;
39948;SDS011;29070;48.102;-1.652;2024-01-15T03:17:12;21.53;;;9.13;;
39948;SDS011;29070;48.102;-1.652;2024-01-15T03:22:13;27.30;;;9.32;;
39948;SDS011;29070;48.102;-1.652;2024-01-15T03:27:13;23.93;;;8.83;;
39948;SDS011;29070;48.102;-1.652;2024-01-15T03:32:13;27.33;;;10.20;;
39948;SDS011;29070;48.102;-1.652;2024-01-15T03:37:15;22.73;;;8.40;;
39948;SDS011;29070;48.102;-1.652;2024-01-15T03:42:16;19.97;;;7.93;;
39948;SDS011;29070;48.102;-1.652;2024-01-15T03:47:16;19.88;;;7.22;;
39948;SDS011;29070;48.102;-1.652;2024-01-15T03:52:16;22.93;;;8.50;;
39948;SDS011;29070;48.102;-1.652;2024-01-15T03:57:17;20.37;;;8.30;;
39948;SDS011;29070;48.102;-1.652;2024-01-15T04:02:17;20.35;;;7.85;;
39948;SDS011;29070;48.102;-1.652;2024-01-15T04:07:17;22.13;;;8.27;;
39948;SDS011;29070;48.102;-1.652;2024-01-15T04:12:18;20.87;;;8.23;;
39948;SDS011;29070;48.102;-1.652;2024-01-15T04:17:18;23.73;;;8.27;;
39948;SDS011;29070;48.102;-1.652;2024-01-15T04:22:18;17.27;;;6.90;;
39948;SDS011;29070;48.102;-1.652;2024-01-15T04:27:19;20.13;;;7.13;;
39948;SDS011;29070;48.102;-1.652;2024-01-15T04:32:19;16.77;;;6.23;;
39948;SDS011;29070;48.102;-1.652;2024-01-15T04:37:19;20.98;;;6.88;;
39948;SDS011;29070;48.102;-1.652;2024-01-15T04:42:20;20.63;;;7.07;;
39948;SDS011;29070;48.102;-1.652;2024-01-15T04:47:21;16.13;;;6.95;;
39948;SDS011;29070;48.102;-1.652;2024-01-15T04:52:21;16.73;;;6.27;;
39948;SDS011;29070;48.102;-1.652;2024-01-15T04:57:22;15.50;;;6.18;;
39948;SDS011;29070;48.102;-1.652;2024-01-15T05:02:22;17.03;;;5.27;;
39948;SDS011;29070;48.102;-1.652;2024-01-15T05:07:22;18.17;;;6.95;;
39948;SDS011;29070;48.102;-1.652;2024-01-15T05:12:23;16.42;;;6.60;;
39948;SDS011;29070;48.102;-1.652;2024-01-15T05:17:23;17.65;;;6.25;;
39948;SDS011;29070;48.102;-1.652;2024-01-15T05:22:23;18.20;;;6.30;;
39948;SDS011;29070;48.102;-1.652;2024-01-15T05:27:25;20.63;;;6.75;;
39948;SDS011;29070;48.102;-1.652;2024-01-15T05:32:25;14.38;;;6.65;;
39948;SDS011;29070;48.102;-1.652;2024-01-15T05:37:26;14.23;;;5.77;;
39948;SDS011;29070;48.102;-1.652;2024-01-15T05:42:26;22.17;;;7.60;;
39948;SDS011;29070;48.102;-1.652;2024-01-15T05:47:26;19.73;;;6.30;;
39948;SDS011;29070;48.102;-1.652;2024-01-15T05:52:27;16.60;;;6.27;;
39948;SDS011;29070;48.102;-1.652;2024-01-15T05:57:27;15.67;;;5.83;;
39948;SDS011;29070;48.102;-1.652;2024-01-15T06:02:28;17.08;;;6.43;;
39948;SDS011;29070;48.102;-1.652;2024-01-15T06:07:28;16.42;;;6.13;;
39948;SDS011;29070;48.102;-1.652;2024-01-15T06:12:28;17.97;;;7.10;;
39948;SDS011;29070;48.102;-1.652;2024-01-15T06:17:29;16.00;;;6.30;;
39948;SDS011;29070;48.102;-1.652;2024-01-15T06:22:29;18.57;;;7.17;;
39948;SDS011;29070;48.102;-1.652;2024-01-15T06:27:29;18.60;;;6.68;;
39948;SDS011;29070;48.102;-1.652;2024-01-15T06:32:30;16.35;;;6.95;;
39948;SDS011;29070;48.102;-1.652;2024-01-15T06:37:30;18.90;;;7.03;;
39948;SDS011;29070;48.102;-1.652;2024-01-15T06:42:32;17.08;;;6.95;;
39948;SDS011;29070;48.102;-1.652;2024-01-15T06:47:33;17.58;;;7.05;;
39948;SDS011;29070;48.102;-1.652;2024-01-15T06:52:33;20.93;;;7.83;;
39948;SDS011;29070;48.102;-1.652;2024-01-15T06:57:33;21.07;;;7.67;;
39948;SDS011;29070;48.102;-1.652;2024-01-15T07:02:34;18.03;;;6.73;;
39948;SDS011;29070;48.102;-1.652;2024-01-15T07:07:34;17.73;;;7.30;;
39948;SDS011;29070;48.102;-1.652;2024-01-15T07:12:34;22.80;;;6.87;;
39948;SDS011;29070;48.102;-1.652;2024-01-15T07:17:35;22.00;;;7.47;;
39948;SDS011;29070;48.102;-1.652;2024-01-15T07:22:39;18.55;;;7.10;;
39948;SDS011;29070;48.102;-1.652;2024-01-15T07:27:39;16.42;;;6.50;;
39948;SDS011;29070;48.102;-1.652;2024-01-15T07:32:39;16.60;;;6.38;;
39948;SDS011;29070;48.102;-1.652;2024-01-15T07:37:40;13.43;;;6.25;;
39948;SDS011;29070;48.102;-1.652;2024-01-15T07:42:41;17.92;;;6.70;;
39948;SDS011;29070;48.102;-1.652;2024-01-15T07:47:43;20.20;;;6.70;;
39948;SDS011;29070;48.102;-1.652;2024-01-15T07:52:44;22.33;;;7.43;;
39948;SDS011;29070;48.102;-1.652;2024-01-15T07:57:44;19.80;;;7.73;;
39948;SDS011;29070;48.102;-1.652;2024-01-15T08:02:44;19.10;;;7.27;;
39948;SDS011;29070;48.102;-1.652;2024-01-15T08:07:45;17.67;;;7.50;;
39948;SDS011;29070;48.102;-1.652;2024-01-15T08:12:45;16.23;;;6.90;;
39948;SDS011;29070;48.102;-1.652;2024-01-15T08:17:45;18.63;;;7.93;;
39948;SDS011;29070;48.102;-1.652;2024-01-15T08:22:46;20.27;;;7.97;;
39948;SDS011;29070;48.102;-1.652;2024-01-15T08:27:47;21.05;;;7.22;;
39948;SDS011;29070;48.102;-1.652;2024-01-15T08:32:47;26.27;;;10.23;;
39948;SDS011;29070;48.102;-1.652;2024-01-15T08:37:51;20.10;;;8.60;;
39948;SDS011;29070;48.102;-1.652;2024-01-15T08:42:52;15.73;;;6.75;;
39948;SDS011;29070;48.102;-1.652;2024-01-15T08:47:53;26.00;;;9.52;;
39948;SDS011;29070;48.102;-1.652;2024-01-15T08:52:53;37.92;;;16.63;;
39948;SDS011;29070;48.102;-1.652;2024-01-15T09:03:55;23.80;;;9.95;;
39948;SDS011;29070;48.102;-1.652;2024-01-15T09:08:55;27.52;;;9.82;;
39948;SDS011;29070;48.102;-1.652;2024-01-15T09:13:55;22.67;;;9.07;;
39948;SDS011;29070;48.102;-1.652;2024-01-15T09:18:56;35.17;;;12.93;;
39948;SDS011;29070;48.102;-1.652;2024-01-15T09:23:57;70.55;;;25.02;;
39948;SDS011;29070;48.102;-1.652;2024-01-15T09:28:58;35.15;;;12.40;;
39948;SDS011;29070;48.102;-1.652;2024-01-15T09:33:58;40.53;;;11.63;;
39948;SDS011;29070;48.102;-1.652;2024-01-15T09:39:00;21.52;;;8.10;;
39948;SDS011;29070;48.102;-1.652;2024-01-15T09:44:00;23.88;;;8.18;;
39948;SDS011;29070;48.102;-1.652;2024-01-15T09:49:02;26.63;;;10.05;;
39948;SDS011;29070;48.102;-1.652;2024-01-15T09:54:02;23.97;;;9.00;;
39948;SDS011;29070;48.102;-1.652;2024-01-15T09:59:04;24.23;;;7.97;;
39948;SDS011;29070;48.102;-1.652;2024-01-15T10:04:04;21.53;;;7.60;;
39948;SDS011;29070;48.102;-1.652;2024-01-15T10:09:04;18.93;;;6.03;;
39948;SDS011;29070;48.102;-1.652;2024-01-15T10:14:05;18.73;;;7.30;;
39948;SDS011;29070;48.102;-1.652;2024-01-15T10:19:07;31.02;;;9.18;;
39948;SDS011;29070;48.102;-1.652;2024-01-15T10:24:07;15.60;;;6.15;;
39948;SDS011;29070;48.102;-1.652;2024-01-15T10:29:08;18.70;;;7.03;;
39948;SDS011;29070;48.102;-1.652;2024-01-15T10:34:12;14.02;;;4.20;;
39948;SDS011;29070;48.102;-1.652;2024-01-15T10:39:13;8.80;;;3.50;;
39948;SDS011;29070;48.102;-1.652;2024-01-15T10:44:14;11.38;;;4.82;;
39948;SDS011;29070;48.102;-1.652;2024-01-15T10:49:14;12.27;;;4.90;;
39948;SDS011;29070;48.102;-1.652;2024-01-15T10:54:15;7.70;;;2.90;;
39948;SDS011;29070;48.102;-1.652;2024-01-15T10:59:16;8.00;;;2.83;;
39948;SDS011;29070;48.102;-1.652;2024-01-15T11:04:16;7.68;;;2.78;;
39948;SDS011;29070;48.102;-1.652;2024-01-15T11:09:18;10.68;;;3.42;;
39948;SDS011;29070;48.102;-1.652;2024-01-15T11:15:01;6.72;;;2.28;;
39948;SDS011;29070;48.102;-1.652;2024-01-15T11:19:49;5.45;;;2.42;;
39948;SDS011;29070;48.102;-1.652;2024-01-15T11:24:50;11.52;;;3.80;;
39948;SDS011;29070;48.102;-1.652;2024-01-15T11:29:51;10.20;;;3.80;;
39948;SDS011;29070;48.102;-1.652;2024-01-15T11:35:03;10.95;;;3.78;;
39948;SDS011;29070;48.102;-1.652;2024-01-15T11:40:04;7.50;;;2.90;;
39948;SDS011;29070;48.102;-1.652;2024-01-15T11:45:04;10.13;;;2.25;;
39948;SDS011;29070;48.102;-1.652;2024-01-15T11:50:05;6.10;;;2.38;;
39948;SDS011;29070;48.102;-1.652;2024-01-15T12:00:34;5.78;;;2.45;;
39948;SDS011;29070;48.102;-1.652;2024-01-15T12:05:36;7.88;;;2.17;;
39948;SDS011;29070;48.102;-1.652;2024-01-15T12:10:37;5.55;;;2.22;;
39948;SDS011;29070;48.102;-1.652;2024-01-15T12:15:40;4.25;;;2.00;;
39948;SDS011;29070;48.102;-1.652;2024-01-15T12:20:43;7.68;;;1.88;;
39948;SDS011;29070;48.102;-1.652;2024-01-15T12:25:44;4.68;;;1.83;;
39948;SDS011;29070;48.102;-1.652;2024-01-15T12:30:46;6.43;;;3.05;;
39948;SDS011;29070;48.102;-1.652;2024-01-15T12:35:49;11.07;;;4.38;;
39948;SDS011;29070;48.102;-1.652;2024-01-15T12:40:52;13.82;;;4.55;;
39948;SDS011;29070;48.102;-1.652;2024-01-15T12:45:53;6.67;;;2.13;;
39948;SDS011;29070;48.102;-1.652;2024-01-15T12:50:53;7.03;;;2.72;;
39948;SDS011;29070;48.102;-1.652;2024-01-15T12:55:53;7.25;;;2.47;;
39948;SDS011;29070;48.102;-1.652;2024-01-15T13:00:54;2.20;;;1.00;;
39948;SDS011;29070;48.102;-1.652;2024-01-15T13:05:54;3.67;;;1.40;;
39948;SDS011;29070;48.102;-1.652;2024-01-15T13:10:54;4.75;;;1.17;;
39948;SDS011;29070;48.102;-1.652;2024-01-15T13:15:57;2.15;;;1.00;;
39948;SDS011;29070;48.102;-1.652;2024-01-15T13:20:57;4.93;;;1.27;;
39948;SDS011;29070;48.102;-1.652;2024-01-15T13:25:57;5.17;;;1.90;;
39948;SDS011;29070;48.102;-1.652;2024-01-15T13:30:58;12.68;;;2.88;;
39948;SDS011;29070;48.102;-1.652;2024-01-15T13:35:58;6.20;;;2.28;;
39948;SDS011;29070;48.102;-1.652;2024-01-15T13:40:59;5.97;;;1.30;;
39948;SDS011;29070;48.102;-1.652;2024-01-15T13:45:59;6.50;;;1.40;;
39948;SDS011;29070;48.102;-1.652;2024-01-15T13:51:00;4.78;;;1.63;;
39948;SDS011;29070;48.102;-1.652;2024-01-15T13:56:00;12.63;;;3.13;;
39948;SDS011;29070;48.102;-1.652;2024-01-15T14:01:01;3.17;;;2.10;;
39948;SDS011;29070;48.102;-1.652;2024-01-15T14:06:03;7.70;;;3.42;;
39948;SDS011;29070;48.102;-1.652;2024-01-15T14:11:08;4.60;;;2.20;;
39948;SDS011;29070;48.102;-1.652;2024-01-15T14:16:10;6.75;;;2.63;;
39948;SDS011;29070;48.102;-1.652;2024-01-15T14:21:11;5.90;;;2.00;;
39948;SDS011;29070;48.102;-1.652;2024-01-15T14:26:12;5.27;;;1.57;;
39948;SDS011;29070;48.102;-1.652;2024-01-15T14:31:12;2.40;;;1.20;;
39948;SDS011;29070;48.102;-1.652;2024-01-15T14:36:12;4.37;;;1.60;;
39948;SDS011;29070;48.102;-1.652;2024-01-15T14:41:13;3.30;;;1.38;;
39948;SDS011;29070;48.102;-1.652;2024-01-15T14:46:13;9.80;;;3.22;;
39948;SDS011;29070;48.102;-1.652;2024-01-15T14:51:14;10.47;;;4.03;;
39948;SDS011;29070;48.102;-1.652;2024-01-15T14:56:14;10.50;;;2.53;;
39948;SDS011;29070;48.102;-1.652;2024-01-15T15:01:14;11.73;;;3.47;;
39948;SDS011;29070;48.102;-1.652;2024-01-15T15:06:15;5.05;;;1.85;;
39948;SDS011;29070;48.102;-1.652;2024-01-15T15:11:16;5.13;;;1.30;;
39948;SDS011;29070;48.102;-1.652;2024-01-15T15:16:16;11.65;;;3.60;;
39948;SDS011;29070;48.102;-1.652;2024-01-15T15:21:17;5.63;;;3.17;;
39948;SDS011;29070;48.102;-1.652;2024-01-15T15:26:17;7.70;;;2.50;;
39948;SDS011;29070;48.102;-1.652;2024-01-15T15:31:17;6.40;;;3.00;;
39948;SDS011;29070;48.102;-1.652;2024-01-15T15:36:18;8.23;;;2.87;;
39948;SDS011;29070;48.102;-1.652;2024-01-15T15:41:19;3.33;;;1.35;;
39948;SDS011;29070;48.102;-1.652;2024-01-15T15:46:19;5.50;;;1.45;;
39948;SDS011;29070;48.102;-1.652;2024-01-15T15:51:20;9.77;;;3.10;;
39948;SDS011;29070;48.102;-1.652;2024-01-15T15:56:20;7.57;;;1.97;;
39948;SDS011;29070;48.102;-1.652;2024-01-15T16:01:20;7.10;;;1.80;;
39948;SDS011;29070;48.102;-1.652;2024-01-15T16:06:22;4.63;;;2.40;;
39948;SDS011;29070;48.102;-1.652;2024-01-15T16:11:22;8.73;;;2.90;;
39948;SDS011;29070;48.102;-1.652;2024-01-15T16:16:23;4.70;;;1.02;;
39948;SDS011;29070;48.102;-1.652;2024-01-15T16:21:23;12.57;;;3.55;;
39948;SDS011;29070;48.102;-1.652;2024-01-15T16:26:24;16.48;;;5.63;;
39948;SDS011;29070;48.102;-1.652;2024-01-15T16:31:24;18.23;;;5.25;;
39948;SDS011;29070;48.102;-1.652;2024-01-15T16:36:25;13.23;;;3.40;;
39948;SDS011;29070;48.102;-1.652;2024-01-15T16:41:25;11.70;;;2.97;;
39948;SDS011;29070;48.102;-1.652;2024-01-15T16:46:26;13.52;;;4.93;;
39948;SDS011;29070;48.102;-1.652;2024-01-15T16:51:26;17.77;;;3.83;;
39948;SDS011;29070;48.102;-1.652;2024-01-15T16:56:26;16.38;;;4.35;;
39948;SDS011;29070;48.102;-1.652;2024-01-15T17:01:27;11.30;;;4.70;;
39948;SDS011;29070;48.102;-1.652;2024-01-15T17:06:27;45.17;;;14.90;;
39948;SDS011;29070;48.102;-1.652;2024-01-15T17:11:27;38.97;;;10.53;;
39948;SDS011;29070;48.102;-1.652;2024-01-15T17:16:28;21.67;;;7.47;;
39948;SDS011;29070;48.102;-1.652;2024-01-15T17:21:28;29.23;;;8.33;;
39948;SDS011;29070;48.102;-1.652;2024-01-15T17:26:29;20.60;;;6.47;;
39948;SDS011;29070;48.102;-1.652;2024-01-15T17:31:29;14.13;;;4.30;;
39948;SDS011;29070;48.102;-1.652;2024-01-15T17:36:30;8.98;;;3.22;;
39948;SDS011;29070;48.102;-1.652;2024-01-15T17:41:31;19.95;;;6.22;;
39948;SDS011;29070;48.102;-1.652;2024-01-15T17:46:32;8.82;;;2.50;;
39948;SDS011;29070;48.102;-1.652;2024-01-15T17:51:33;6.07;;;2.47;;
39948;SDS011;29070;48.102;-1.652;2024-01-15T17:56:34;9.00;;;2.63;;
39948;SDS011;29070;48.102;-1.652;2024-01-15T18:01:35;8.68;;;3.00;;
39948;SDS011;29070;48.102;-1.652;2024-01-15T18:06:36;5.60;;;3.22;;
39948;SDS011;29070;48.102;-1.652;2024-01-15T18:11:36;11.67;;;3.00;;
39948;SDS011;29070;48.102;-1.652;2024-01-15T18:16:37;4.53;;;2.47;;
39948;SDS011;29070;48.102;-1.652;2024-01-15T18:21:37;5.13;;;2.90;;
39948;SDS011;29070;48.102;-1.652;2024-01-15T18:26:37;12.57;;;4.53;;
39948;SDS011;29070;48.102;-1.652;2024-01-15T18:31:39;7.75;;;3.78;;
39948;SDS011;29070;48.102;-1.652;2024-01-15T18:36:40;6.63;;;3.97;;
39948;SDS011;29070;48.102;-1.652;2024-01-15T18:41:43;14.82;;;4.53;;
39948;SDS011;29070;48.102;-1.652;2024-01-15T18:46:43;12.38;;;4.57;;
39948;SDS011;29070;48.102;-1.652;2024-01-15T18:51:45;11.57;;;4.70;;
39948;SDS011;29070;48.102;-1.652;2024-01-15T19:01:51;15.13;;;4.30;;
39948;SDS011;29070;48.102;-1.652;2024-01-15T19:06:51;10.23;;;3.90;;
39948;SDS011;29070;48.102;-1.652;2024-01-15T19:11:52;13.17;;;4.07;;
39948;SDS011;29070;48.102;-1.652;2024-01-15T19:16:52;7.63;;;3.85;;
39948;SDS011;29070;48.102;-1.652;2024-01-15T19:21:54;8.57;;;3.85;;
39948;SDS011;29070;48.102;-1.652;2024-01-15T19:26:54;6.93;;;3.17;;
39948;SDS011;29070;48.102;-1.652;2024-01-15T19:31:54;9.77;;;3.65;;
39948;SDS011;29070;48.102;-1.652;2024-01-15T19:36:55;11.20;;;4.38;;
39948;SDS011;29070;48.102;-1.652;2024-01-15T19:41:55;10.67;;;4.00;;
39948;SDS011;29070;48.102;-1.652;2024-01-15T19:46:55;10.10;;;4.07;;
39948;SDS011;29070;48.102;-1.652;2024-01-15T19:51:56;10.90;;;5.18;;
39948;SDS011;29070;48.102;-1.652;2024-01-15T19:56:56;12.60;;;5.63;;
39948;SDS011;29070;48.102;-1.652;2024-01-15T20:01:57;13.83;;;6.00;;
39948;SDS011;29070;48.102;-1.652;2024-01-15T20:06:57;14.23;;;6.10;;
39948;SDS011;29070;48.102;-1.652;2024-01-15T20:11:58;17.33;;;6.93;;
39948;SDS011;29070;48.102;-1.652;2024-01-15T20:16:59;16.65;;;6.45;;
39948;SDS011;29070;48.102;-1.652;2024-01-15T20:22:00;18.25;;;7.18;;
39948;SDS011;29070;48.102;-1.652;2024-01-15T20:27:01;17.57;;;6.37;;
39948;SDS011;29070;48.102;-1.652;2024-01-15T20:32:01;14.23;;;6.93;;
39948;SDS011;29070;48.102;-1.652;2024-01-15T20:37:02;20.30;;;7.72;;
39948;SDS011;29070;48.102;-1.652;2024-01-15T20:42:03;16.77;;;7.40;;
39948;SDS011;29070;48.102;-1.652;2024-01-15T20:47:03;19.17;;;6.22;;
39948;SDS011;29070;48.102;-1.652;2024-01-15T20:52:04;16.10;;;6.43;;
39948;SDS011;29070;48.102;-1.652;2024-01-15T20:57:05;18.98;;;7.25;;
39948;SDS011;29070;48.102;-1.652;2024-01-15T21:02:05;17.35;;;7.30;;
39948;SDS011;29070;48.102;-1.652;2024-01-15T21:07:06;19.08;;;7.60;;
39948;SDS011;29070;48.102;-1.652;2024-01-15T21:12:07;24.70;;;10.68;;
39948;SDS011;29070;48.102;-1.652;2024-01-15T21:17:08;21.42;;;11.32;;
39948;SDS011;29070;48.102;-1.652;2024-01-15T21:22:08;19.30;;;9.33;;
39948;SDS011;29070;48.102;-1.652;2024-01-15T21:27:09;21.95;;;9.05;;
39948;SDS011;29070;48.102;-1.652;2024-01-15T21:32:09;17.37;;;7.40;;
39948;SDS011;29070;48.102;-1.652;2024-01-15T21:37:09;19.37;;;7.77;;
39948;SDS011;29070;48.102;-1.652;2024-01-15T21:42:11;18.60;;;7.80;;
39948;SDS011;29070;48.102;-1.652;2024-01-15T21:47:11;22.95;;;7.85;;
39948;SDS011;29070;48.102;-1.652;2024-01-15T21:52:11;16.30;;;8.37;;
39948;SDS011;29070;48.102;-1.652;2024-01-15T21:57:12;17.70;;;8.07;;
39948;SDS011;29070;48.102;-1.652;2024-01-15T22:02:12;24.57;;;8.87;;
39948;SDS011;29070;48.102;-1.652;2024-01-15T22:07:13;24.45;;;8.65;;
39948;SDS011;29070;48.102;-1.652;2024-01-15T22:12:13;20.95;;;8.57;;
39948;SDS011;29070;48.102;-1.652;2024-01-15T22:17:14;16.73;;;7.93;;
39948;SDS011;29070;48.102;-1.652;2024-01-15T22:22:14;17.87;;;8.83;;
39948;SDS011;29070;48.102;-1.652;2024-01-15T22:27:14;18.27;;;8.23;;
39948;SDS011;29070;48.102;-1.652;2024-01-15T22:32:15;18.95;;;8.40;;
39948;SDS011;29070;48.102;-1.652;2024-01-15T22:37:15;18.25;;;7.60;;
39948;SDS011;29070;48.102;-1.652;2024-01-15T22:42:16;18.88;;;8.75;;
39948;SDS011;29070;48.102;-1.652;2024-01-15T22:47:18;16.88;;;7.85;;
39948;SDS011;29070;48.102;-1.652;2024-01-15T22:52:19;15.25;;;8.25;;
39948;SDS011;29070;48.102;-1.652;2024-01-15T22:57:19;14.93;;;6.93;;
39948;SDS011;29070;48.102;-1.652;2024-01-15T23:02:19;13.38;;;6.90;;
39948;SDS011;29070;48.102;-1.652;2024-01-15T23:07:21;13.35;;;6.90;;
39948;SDS011;29070;48.102;-1.652;2024-01-15T23:12:21;21.87;;;7.70;;
39948;SDS011;29070;48.102;-1.652;2024-01-15T23:17:21;12.43;;;6.00;;
39948;SDS011;29070;48.102;-1.652;2024-01-15T23:22:22;14.50;;;6.90;;
39948;SDS011;29070;48.102;-1.652;2024-01-15T23:27:23;19.30;;;7.60;;
39948;SDS011;29070;48.102;-1.652;2024-01-15T23:32:23;12.20;;;5.87;;
39948;SDS011;29070;48.102;-1.652;2024-01-15T23:37:23;13.13;;;6.00;;
39948;SDS011;29070;48.102;-1.652;2024-01-15T23:42:24;17.25;;;6.90;;
39948;SDS011;29070;48.102;-1.652;2024-01-15T23:47:24;11.97;;;5.63;;
39948;SDS011;29070;48.102;-1.652;2024-01-15T23:52:25;15.70;;;6.63;;
39948;SDS011;29070;48.102;-1.652;2024-01-15T23:57:25;17.40;;;6.37;;
